sensor_id;sensor_type;location;lat;lon;timestamp;temperature;humidity
57026;DHT22;43961;52.940;6.834;2023-11-19T00:02:10;10.40;99.90
57026;DHT22;43961;52.940;6.834;2023-11-19T00:04:39;10.30;99.90
57026;DHT22;43961;52.940;6.834;2023-11-19T00:07:05;10.40;99.90
57026;DHT22;43961;52.940;6.834;2023-11-19T00:09:35;10.40;99.90
57026;DHT22;43961;52.940;6.834;2023-11-19T00:12:03;10.50;99.90
57026;DHT22;43961;52.940;6.834;2023-11-19T00:14:30;10.40;99.90
57026;DHT22;43961;52.940;6.834;2023-11-19T00:16:55;10.50;99.90
57026;DHT22;43961;52.940;6.834;2023-11-19T00:19:21;10.40;99.90
57026;DHT22;43961;52.940;6.834;2023-11-19T00:21:47;10.50;99.90
57026;DHT22;43961;52.940;6.834;2023-11-19T00:24:12;10.40;99.90
57026;DHT22;43961;52.940;6.834;2023-11-19T00:26:38;10.50;99.90
57026;DHT22;43961;52.940;6.834;2023-11-19T00:29:04;10.50;99.90
57026;DHT22;43961;52.940;6.834;2023-11-19T00:31:32;10.50;99.90
57026;DHT22;43961;52.940;6.834;2023-11-19T00:33:57;10.60;99.90
57026;DHT22;43961;52.940;6.834;2023-11-19T00:36:23;10.60;99.90
57026;DHT22;43961;52.940;6.834;2023-11-19T00:38:49;10.60;99.90
57026;DHT22;43961;52.940;6.834;2023-11-19T00:41:15;10.70;99.90
57026;DHT22;43961;52.940;6.834;2023-11-19T00:43:44;10.70;99.90
57026;DHT22;43961;52.940;6.834;2023-11-19T00:46:10;10.70;99.90
57026;DHT22;43961;52.940;6.834;2023-11-19T00:48:39;10.70;99.90
57026;DHT22;43961;52.940;6.834;2023-11-19T00:51:05;10.80;99.90
57026;DHT22;43961;52.940;6.834;2023-11-19T00:53:31;10.80;99.90
57026;DHT22;43961;52.940;6.834;2023-11-19T00:56:00;10.90;99.90
57026;DHT22;43961;52.940;6.834;2023-11-19T00:58:26;11.00;99.90
57026;DHT22;43961;52.940;6.834;2023-11-19T01:00:53;11.10;99.90
57026;DHT22;43961;52.940;6.834;2023-11-19T01:03:19;11.10;99.90
57026;DHT22;43961;52.940;6.834;2023-11-19T01:05:44;11.20;99.90
57026;DHT22;43961;52.940;6.834;2023-11-19T01:08:12;11.20;99.90
57026;DHT22;43961;52.940;6.834;2023-11-19T01:10:38;11.20;99.90
57026;DHT22;43961;52.940;6.834;2023-11-19T01:13:03;11.20;99.90
57026;DHT22;43961;52.940;6.834;2023-11-19T01:15:31;11.20;99.90
57026;DHT22;43961;52.940;6.834;2023-11-19T01:17:57;11.30;99.90
57026;DHT22;43961;52.940;6.834;2023-11-19T01:20:23;11.30;99.90
57026;DHT22;43961;52.940;6.834;2023-11-19T01:22:50;11.40;99.90
57026;DHT22;43961;52.940;6.834;2023-11-19T01:25:16;11.40;99.90
57026;DHT22;43961;52.940;6.834;2023-11-19T01:27:41;11.40;99.90
57026;DHT22;43961;52.940;6.834;2023-11-19T01:30:07;11.40;99.90
57026;DHT22;43961;52.940;6.834;2023-11-19T01:32:35;11.40;99.90
57026;DHT22;43961;52.940;6.834;2023-11-19T01:35:03;11.40;99.90
57026;DHT22;43961;52.940;6.834;2023-11-19T01:37:29;11.40;99.90
57026;DHT22;43961;52.940;6.834;2023-11-19T01:39:56;11.40;99.90
57026;DHT22;43961;52.940;6.834;2023-11-19T01:42:23;11.40;99.90
57026;DHT22;43961;52.940;6.834;2023-11-19T01:45:00;11.40;99.90
57026;DHT22;43961;52.940;6.834;2023-11-19T01:47:30;11.40;99.90
57026;DHT22;43961;52.940;6.834;2023-11-19T01:49:56;11.50;99.90
57026;DHT22;43961;52.940;6.834;2023-11-19T01:52:22;11.50;99.90
57026;DHT22;43961;52.940;6.834;2023-11-19T01:54:49;11.50;99.90
57026;DHT22;43961;52.940;6.834;2023-11-19T01:57:15;11.50;99.90
57026;DHT22;43961;52.940;6.834;2023-11-19T01:59:41;11.50;99.90
57026;DHT22;43961;52.940;6.834;2023-11-19T02:02:07;11.60;99.90
57026;DHT22;43961;52.940;6.834;2023-11-19T02:04:33;11.50;99.90
57026;DHT22;43961;52.940;6.834;2023-11-19T02:07:00;11.50;99.90
57026;DHT22;43961;52.940;6.834;2023-11-19T02:09:26;11.60;99.90
57026;DHT22;43961;52.940;6.834;2023-11-19T02:11:53;11.60;99.90
57026;DHT22;43961;52.940;6.834;2023-11-19T02:14:23;11.60;99.90
57026;DHT22;43961;52.940;6.834;2023-11-19T02:16:51;11.60;99.90
57026;DHT22;43961;52.940;6.834;2023-11-19T02:19:19;11.70;99.90
57026;DHT22;43961;52.940;6.834;2023-11-19T02:21:45;11.60;99.90
57026;DHT22;43961;52.940;6.834;2023-11-19T02:24:12;11.60;99.90
57026;DHT22;43961;52.940;6.834;2023-11-19T02:26:44;11.60;99.90
57026;DHT22;43961;52.940;6.834;2023-11-19T02:29:12;11.60;99.90
57026;DHT22;43961;52.940;6.834;2023-11-19T02:31:38;11.60;99.90
57026;DHT22;43961;52.940;6.834;2023-11-19T02:34:04;11.60;99.90
57026;DHT22;43961;52.940;6.834;2023-11-19T02:36:31;11.60;99.90
57026;DHT22;43961;52.940;6.834;2023-11-19T02:38:58;11.60;99.90
57026;DHT22;43961;52.940;6.834;2023-11-19T02:41:23;11.70;99.90
57026;DHT22;43961;52.940;6.834;2023-11-19T02:43:49;11.70;99.90
57026;DHT22;43961;52.940;6.834;2023-11-19T02:46:17;11.60;99.90
57026;DHT22;43961;52.940;6.834;2023-11-19T02:48:43;11.70;99.90
57026;DHT22;43961;52.940;6.834;2023-11-19T02:51:10;11.70;99.90
57026;DHT22;43961;52.940;6.834;2023-11-19T02:53:36;11.70;99.90
57026;DHT22;43961;52.940;6.834;2023-11-19T02:56:06;11.70;99.90
57026;DHT22;43961;52.940;6.834;2023-11-19T02:58:37;11.70;99.90
57026;DHT22;43961;52.940;6.834;2023-11-19T03:01:04;11.70;99.90
57026;DHT22;43961;52.940;6.834;2023-11-19T03:03:41;11.70;99.90
57026;DHT22;43961;52.940;6.834;2023-11-19T03:06:14;11.70;99.90
57026;DHT22;43961;52.940;6.834;2023-11-19T03:08:41;11.70;99.90
57026;DHT22;43961;52.940;6.834;2023-11-19T03:11:08;11.80;99.90
57026;DHT22;43961;52.940;6.834;2023-11-19T03:13:34;11.80;99.90
57026;DHT22;43961;52.940;6.834;2023-11-19T03:16:01;11.80;99.90
57026;DHT22;43961;52.940;6.834;2023-11-19T03:18:26;11.80;99.90
57026;DHT22;43961;52.940;6.834;2023-11-19T03:20:53;11.90;99.90
57026;DHT22;43961;52.940;6.834;2023-11-19T03:23:19;11.90;99.90
57026;DHT22;43961;52.940;6.834;2023-11-19T03:25:45;11.90;99.90
57026;DHT22;43961;52.940;6.834;2023-11-19T03:28:11;11.90;99.90
57026;DHT22;43961;52.940;6.834;2023-11-19T03:30:36;11.90;99.90
57026;DHT22;43961;52.940;6.834;2023-11-19T03:33:02;11.90;99.90
57026;DHT22;43961;52.940;6.834;2023-11-19T03:35:28;11.90;99.90
57026;DHT22;43961;52.940;6.834;2023-11-19T03:37:54;11.90;99.90
57026;DHT22;43961;52.940;6.834;2023-11-19T03:40:20;11.90;99.90
57026;DHT22;43961;52.940;6.834;2023-11-19T03:42:46;11.90;99.90
57026;DHT22;43961;52.940;6.834;2023-11-19T03:45:12;11.90;99.90
57026;DHT22;43961;52.940;6.834;2023-11-19T03:47:39;11.90;99.90
57026;DHT22;43961;52.940;6.834;2023-11-19T03:50:06;11.90;99.90
57026;DHT22;43961;52.940;6.834;2023-11-19T03:52:33;11.90;99.90
57026;DHT22;43961;52.940;6.834;2023-11-19T03:54:59;11.90;99.90
57026;DHT22;43961;52.940;6.834;2023-11-19T03:57:24;11.80;99.90
57026;DHT22;43961;52.940;6.834;2023-11-19T03:59:50;11.90;99.90
57026;DHT22;43961;52.940;6.834;2023-11-19T04:02:16;11.90;99.90
57026;DHT22;43961;52.940;6.834;2023-11-19T04:04:42;11.80;99.90
57026;DHT22;43961;52.940;6.834;2023-11-19T04:07:08;11.90;99.90
57026;DHT22;43961;52.940;6.834;2023-11-19T04:09:33;11.80;99.90
57026;DHT22;43961;52.940;6.834;2023-11-19T04:12:00;11.80;99.90
57026;DHT22;43961;52.940;6.834;2023-11-19T04:14:26;11.90;99.90
57026;DHT22;43961;52.940;6.834;2023-11-19T04:16:52;11.90;99.90
57026;DHT22;43961;52.940;6.834;2023-11-19T04:19:19;11.80;99.90
57026;DHT22;43961;52.940;6.834;2023-11-19T04:21:45;11.80;99.90
57026;DHT22;43961;52.940;6.834;2023-11-19T04:24:11;11.80;99.90
57026;DHT22;43961;52.940;6.834;2023-11-19T04:26:44;11.90;99.90
57026;DHT22;43961;52.940;6.834;2023-11-19T04:29:14;11.80;99.90
57026;DHT22;43961;52.940;6.834;2023-11-19T04:31:41;11.80;99.90
57026;DHT22;43961;52.940;6.834;2023-11-19T04:34:08;11.80;99.90
57026;DHT22;43961;52.940;6.834;2023-11-19T04:36:34;11.80;99.90
57026;DHT22;43961;52.940;6.834;2023-11-19T04:39:01;11.80;99.90
57026;DHT22;43961;52.940;6.834;2023-11-19T04:41:28;11.80;99.90
57026;DHT22;43961;52.940;6.834;2023-11-19T04:43:54;11.80;99.90
57026;DHT22;43961;52.940;6.834;2023-11-19T04:46:19;11.80;99.90
57026;DHT22;43961;52.940;6.834;2023-11-19T04:48:45;11.70;99.90
57026;DHT22;43961;52.940;6.834;2023-11-19T04:51:11;11.70;99.90
57026;DHT22;43961;52.940;6.834;2023-11-19T04:53:37;11.70;99.90
57026;DHT22;43961;52.940;6.834;2023-11-19T04:56:11;11.70;99.90
57026;DHT22;43961;52.940;6.834;2023-11-19T04:58:37;11.60;99.90
57026;DHT22;43961;52.940;6.834;2023-11-19T05:01:05;11.60;99.90
57026;DHT22;43961;52.940;6.834;2023-11-19T05:03:32;11.60;99.90
57026;DHT22;43961;52.940;6.834;2023-11-19T05:05:58;11.50;99.90
57026;DHT22;43961;52.940;6.834;2023-11-19T05:08:24;11.50;99.90
57026;DHT22;43961;52.940;6.834;2023-11-19T05:10:50;11.50;99.90
57026;DHT22;43961;52.940;6.834;2023-11-19T05:13:16;11.50;99.90
57026;DHT22;43961;52.940;6.834;2023-11-19T05:15:42;11.50;99.90
57026;DHT22;43961;52.940;6.834;2023-11-19T05:18:08;11.50;99.90
57026;DHT22;43961;52.940;6.834;2023-11-19T05:20:34;11.50;99.90
57026;DHT22;43961;52.940;6.834;2023-11-19T05:23:00;11.40;99.90
57026;DHT22;43961;52.940;6.834;2023-11-19T05:25:26;11.40;99.90
57026;DHT22;43961;52.940;6.834;2023-11-19T05:27:53;11.40;99.90
57026;DHT22;43961;52.940;6.834;2023-11-19T05:30:18;11.40;99.90
57026;DHT22;43961;52.940;6.834;2023-11-19T05:32:44;11.40;99.90
57026;DHT22;43961;52.940;6.834;2023-11-19T05:35:11;11.30;99.90
57026;DHT22;43961;52.940;6.834;2023-11-19T05:37:37;11.30;99.90
57026;DHT22;43961;52.940;6.834;2023-11-19T05:40:03;11.30;99.90
57026;DHT22;43961;52.940;6.834;2023-11-19T05:42:31;11.40;99.90
57026;DHT22;43961;52.940;6.834;2023-11-19T05:44:57;11.40;99.90
57026;DHT22;43961;52.940;6.834;2023-11-19T05:47:23;11.40;99.90
57026;DHT22;43961;52.940;6.834;2023-11-19T05:49:48;11.30;99.90
57026;DHT22;43961;52.940;6.834;2023-11-19T05:52:14;11.30;99.90
57026;DHT22;43961;52.940;6.834;2023-11-19T05:54:40;11.30;99.90
57026;DHT22;43961;52.940;6.834;2023-11-19T05:57:06;11.40;99.90
57026;DHT22;43961;52.940;6.834;2023-11-19T05:59:35;11.40;99.90
57026;DHT22;43961;52.940;6.834;2023-11-19T06:02:02;11.40;99.90
57026;DHT22;43961;52.940;6.834;2023-11-19T06:04:28;11.30;99.90
57026;DHT22;43961;52.940;6.834;2023-11-19T06:06:54;11.30;99.90
57026;DHT22;43961;52.940;6.834;2023-11-19T06:09:22;11.30;99.90
57026;DHT22;43961;52.940;6.834;2023-11-19T06:11:52;11.40;99.90
57026;DHT22;43961;52.940;6.834;2023-11-19T06:14:18;11.40;99.90
57026;DHT22;43961;52.940;6.834;2023-11-19T06:16:44;11.30;99.90
57026;DHT22;43961;52.940;6.834;2023-11-19T06:19:10;11.30;99.90
57026;DHT22;43961;52.940;6.834;2023-11-19T06:21:37;11.30;99.90
57026;DHT22;43961;52.940;6.834;2023-11-19T06:24:03;11.30;99.90
57026;DHT22;43961;52.940;6.834;2023-11-19T06:26:30;11.30;99.90
57026;DHT22;43961;52.940;6.834;2023-11-19T06:28:55;11.30;99.90
57026;DHT22;43961;52.940;6.834;2023-11-19T06:31:21;11.30;99.90
57026;DHT22;43961;52.940;6.834;2023-11-19T06:33:47;11.30;99.90
57026;DHT22;43961;52.940;6.834;2023-11-19T06:36:16;11.30;99.90
57026;DHT22;43961;52.940;6.834;2023-11-19T06:38:44;11.30;99.90
57026;DHT22;43961;52.940;6.834;2023-11-19T06:41:10;11.30;99.90
57026;DHT22;43961;52.940;6.834;2023-11-19T06:43:36;11.30;99.90
57026;DHT22;43961;52.940;6.834;2023-11-19T06:46:02;11.20;99.90
57026;DHT22;43961;52.940;6.834;2023-11-19T06:48:32;11.20;99.90
57026;DHT22;43961;52.940;6.834;2023-11-19T06:50:58;11.10;99.90
57026;DHT22;43961;52.940;6.834;2023-11-19T06:53:24;11.00;99.90
57026;DHT22;43961;52.940;6.834;2023-11-19T06:55:50;11.00;99.90
57026;DHT22;43961;52.940;6.834;2023-11-19T06:58:15;11.00;99.90
57026;DHT22;43961;52.940;6.834;2023-11-19T07:00:42;11.00;99.90
57026;DHT22;43961;52.940;6.834;2023-11-19T07:03:08;11.00;99.90
57026;DHT22;43961;52.940;6.834;2023-11-19T07:05:36;11.00;99.90
57026;DHT22;43961;52.940;6.834;2023-11-19T07:08:05;11.00;99.90
57026;DHT22;43961;52.940;6.834;2023-11-19T07:10:31;10.90;99.90
57026;DHT22;43961;52.940;6.834;2023-11-19T07:12:56;10.90;99.90
57026;DHT22;43961;52.940;6.834;2023-11-19T07:15:23;10.90;99.90
57026;DHT22;43961;52.940;6.834;2023-11-19T07:17:48;11.00;99.90
57026;DHT22;43961;52.940;6.834;2023-11-19T07:20:14;10.90;99.90
57026;DHT22;43961;52.940;6.834;2023-11-19T07:22:44;10.90;99.90
57026;DHT22;43961;52.940;6.834;2023-11-19T07:25:13;10.90;99.90
57026;DHT22;43961;52.940;6.834;2023-11-19T07:27:39;10.90;99.90
57026;DHT22;43961;52.940;6.834;2023-11-19T07:30:06;10.90;99.90
57026;DHT22;43961;52.940;6.834;2023-11-19T07:32:33;11.00;99.90
57026;DHT22;43961;52.940;6.834;2023-11-19T07:34:58;11.00;99.90
57026;DHT22;43961;52.940;6.834;2023-11-19T07:37:25;10.90;99.90
57026;DHT22;43961;52.940;6.834;2023-11-19T07:39:53;11.00;99.90
57026;DHT22;43961;52.940;6.834;2023-11-19T07:42:18;11.00;99.90
57026;DHT22;43961;52.940;6.834;2023-11-19T07:44:44;11.00;99.90
57026;DHT22;43961;52.940;6.834;2023-11-19T07:47:10;11.00;99.90
57026;DHT22;43961;52.940;6.834;2023-11-19T07:49:35;11.00;99.90
57026;DHT22;43961;52.940;6.834;2023-11-19T07:52:01;11.00;99.90
57026;DHT22;43961;52.940;6.834;2023-11-19T07:54:28;11.00;99.90
57026;DHT22;43961;52.940;6.834;2023-11-19T07:56:54;11.00;99.90
57026;DHT22;43961;52.940;6.834;2023-11-19T07:59:20;11.00;99.90
57026;DHT22;43961;52.940;6.834;2023-11-19T08:01:46;11.00;99.90
57026;DHT22;43961;52.940;6.834;2023-11-19T08:04:12;11.00;99.90
57026;DHT22;43961;52.940;6.834;2023-11-19T08:06:38;10.90;99.90
57026;DHT22;43961;52.940;6.834;2023-11-19T08:09:03;11.00;99.90
57026;DHT22;43961;52.940;6.834;2023-11-19T08:11:30;11.00;99.90
57026;DHT22;43961;52.940;6.834;2023-11-19T08:13:56;11.00;99.90
57026;DHT22;43961;52.940;6.834;2023-11-19T08:16:21;11.00;99.90
57026;DHT22;43961;52.940;6.834;2023-11-19T08:18:47;11.10;99.90
57026;DHT22;43961;52.940;6.834;2023-11-19T08:21:13;11.10;99.90
57026;DHT22;43961;52.940;6.834;2023-11-19T08:23:39;11.20;99.90
57026;DHT22;43961;52.940;6.834;2023-11-19T08:26:06;11.10;99.90
57026;DHT22;43961;52.940;6.834;2023-11-19T08:28:31;11.10;99.90
57026;DHT22;43961;52.940;6.834;2023-11-19T08:30:59;11.10;99.90
57026;DHT22;43961;52.940;6.834;2023-11-19T08:33:26;11.10;99.90
57026;DHT22;43961;52.940;6.834;2023-11-19T08:35:53;11.20;99.90
57026;DHT22;43961;52.940;6.834;2023-11-19T08:38:19;11.10;99.90
57026;DHT22;43961;52.940;6.834;2023-11-19T08:40:45;11.10;99.90
57026;DHT22;43961;52.940;6.834;2023-11-19T08:43:11;11.10;99.90
57026;DHT22;43961;52.940;6.834;2023-11-19T08:45:37;11.20;99.90
57026;DHT22;43961;52.940;6.834;2023-11-19T08:48:03;11.20;99.90
57026;DHT22;43961;52.940;6.834;2023-11-19T08:50:28;11.20;99.90
57026;DHT22;43961;52.940;6.834;2023-11-19T08:52:54;11.30;99.90
57026;DHT22;43961;52.940;6.834;2023-11-19T08:55:20;11.20;99.90
57026;DHT22;43961;52.940;6.834;2023-11-19T08:57:45;11.30;99.90
57026;DHT22;43961;52.940;6.834;2023-11-19T09:00:12;11.30;99.90
57026;DHT22;43961;52.940;6.834;2023-11-19T09:02:39;11.30;99.90
57026;DHT22;43961;52.940;6.834;2023-11-19T09:05:05;11.20;99.90
57026;DHT22;43961;52.940;6.834;2023-11-19T09:07:33;11.20;99.90
57026;DHT22;43961;52.940;6.834;2023-11-19T09:09:58;11.20;99.90
57026;DHT22;43961;52.940;6.834;2023-11-19T09:12:24;11.20;99.90
57026;DHT22;43961;52.940;6.834;2023-11-19T09:14:50;11.20;99.90
57026;DHT22;43961;52.940;6.834;2023-11-19T09:17:16;11.20;99.90
57026;DHT22;43961;52.940;6.834;2023-11-19T09:19:43;11.20;99.90
57026;DHT22;43961;52.940;6.834;2023-11-19T09:22:08;11.20;99.90
57026;DHT22;43961;52.940;6.834;2023-11-19T09:24:34;11.20;99.90
57026;DHT22;43961;52.940;6.834;2023-11-19T09:26:59;11.30;99.90
57026;DHT22;43961;52.940;6.834;2023-11-19T09:29:25;11.30;99.90
57026;DHT22;43961;52.940;6.834;2023-11-19T09:31:51;11.30;99.90
57026;DHT22;43961;52.940;6.834;2023-11-19T09:34:17;11.30;99.90
57026;DHT22;43961;52.940;6.834;2023-11-19T09:36:42;11.30;99.90
57026;DHT22;43961;52.940;6.834;2023-11-19T09:39:11;11.40;99.90
57026;DHT22;43961;52.940;6.834;2023-11-19T09:41:38;11.40;99.90
57026;DHT22;43961;52.940;6.834;2023-11-19T09:44:04;11.40;99.90
57026;DHT22;43961;52.940;6.834;2023-11-19T09:46:30;11.40;99.90
57026;DHT22;43961;52.940;6.834;2023-11-19T09:48:56;11.50;99.90
57026;DHT22;43961;52.940;6.834;2023-11-19T09:51:23;11.50;99.90
57026;DHT22;43961;52.940;6.834;2023-11-19T09:53:49;11.50;99.90
57026;DHT22;43961;52.940;6.834;2023-11-19T09:56:15;11.50;99.90
57026;DHT22;43961;52.940;6.834;2023-11-19T09:58:42;11.50;99.90
57026;DHT22;43961;52.940;6.834;2023-11-19T10:01:08;11.50;99.90
57026;DHT22;43961;52.940;6.834;2023-11-19T10:03:37;11.50;99.90
57026;DHT22;43961;52.940;6.834;2023-11-19T10:06:10;11.50;99.90
57026;DHT22;43961;52.940;6.834;2023-11-19T10:08:41;11.50;99.90
57026;DHT22;43961;52.940;6.834;2023-11-19T10:11:08;11.50;99.90
57026;DHT22;43961;52.940;6.834;2023-11-19T10:13:37;11.50;99.90
57026;DHT22;43961;52.940;6.834;2023-11-19T10:16:12;11.60;99.90
57026;DHT22;43961;52.940;6.834;2023-11-19T10:18:45;11.50;99.90
57026;DHT22;43961;52.940;6.834;2023-11-19T10:21:15;11.50;99.90
57026;DHT22;43961;52.940;6.834;2023-11-19T10:23:50;11.50;99.90
57026;DHT22;43961;52.940;6.834;2023-11-19T10:26:17;11.50;99.90
57026;DHT22;43961;52.940;6.834;2023-11-19T10:28:43;11.50;99.90
57026;DHT22;43961;52.940;6.834;2023-11-19T10:31:14;11.50;99.90
57026;DHT22;43961;52.940;6.834;2023-11-19T10:33:40;11.50;99.90
57026;DHT22;43961;52.940;6.834;2023-11-19T10:36:06;11.40;99.90
57026;DHT22;43961;52.940;6.834;2023-11-19T10:38:32;11.50;99.90
57026;DHT22;43961;52.940;6.834;2023-11-19T10:40:59;11.50;99.90
57026;DHT22;43961;52.940;6.834;2023-11-19T10:43:24;11.50;99.90
57026;DHT22;43961;52.940;6.834;2023-11-19T10:45:51;11.40;99.90
57026;DHT22;43961;52.940;6.834;2023-11-19T10:48:17;11.40;99.90
57026;DHT22;43961;52.940;6.834;2023-11-19T10:50:44;11.40;99.90
57026;DHT22;43961;52.940;6.834;2023-11-19T10:53:12;11.30;99.90
57026;DHT22;43961;52.940;6.834;2023-11-19T10:55:47;11.30;99.90
57026;DHT22;43961;52.940;6.834;2023-11-19T10:58:16;11.30;99.90
57026;DHT22;43961;52.940;6.834;2023-11-19T11:00:47;11.30;99.90
57026;DHT22;43961;52.940;6.834;2023-11-19T11:03:19;11.30;99.90
57026;DHT22;43961;52.940;6.834;2023-11-19T11:05:47;11.40;99.90
57026;DHT22;43961;52.940;6.834;2023-11-19T11:08:15;11.30;99.90
57026;DHT22;43961;52.940;6.834;2023-11-19T11:10:54;11.40;99.90
57026;DHT22;43961;52.940;6.834;2023-11-19T11:13:22;11.40;99.90
57026;DHT22;43961;52.940;6.834;2023-11-19T11:15:50;11.40;99.90
57026;DHT22;43961;52.940;6.834;2023-11-19T11:18:16;11.50;99.90
57026;DHT22;43961;52.940;6.834;2023-11-19T11:20:45;11.50;99.90
57026;DHT22;43961;52.940;6.834;2023-11-19T11:23:35;11.50;99.90
57026;DHT22;43961;52.940;6.834;2023-11-19T11:26:18;11.50;99.90
57026;DHT22;43961;52.940;6.834;2023-11-19T11:28:57;11.60;99.90
57026;DHT22;43961;52.940;6.834;2023-11-19T11:34:58;11.50;99.90
57026;DHT22;43961;52.940;6.834;2023-11-19T11:39:58;11.40;99.90
57026;DHT22;43961;52.940;6.834;2023-11-19T11:45:02;11.40;99.90
57026;DHT22;43961;52.940;6.834;2023-11-19T11:50:14;11.50;99.90
57026;DHT22;43961;52.940;6.834;2023-11-19T11:57:57;11.60;99.90
57026;DHT22;43961;52.940;6.834;2023-11-19T12:00:37;11.60;99.90
57026;DHT22;43961;52.940;6.834;2023-11-19T12:03:04;11.60;99.90
57026;DHT22;43961;52.940;6.834;2023-11-19T12:05:30;11.60;99.90
57026;DHT22;43961;52.940;6.834;2023-11-19T12:08:05;11.50;99.90
57026;DHT22;43961;52.940;6.834;2023-11-19T12:10:38;11.50;99.90
57026;DHT22;43961;52.940;6.834;2023-11-19T12:13:09;11.50;99.90
57026;DHT22;43961;52.940;6.834;2023-11-19T12:18:23;11.40;99.90
57026;DHT22;43961;52.940;6.834;2023-11-19T12:20:50;11.30;99.90
57026;DHT22;43961;52.940;6.834;2023-11-19T12:23:16;11.30;99.90
57026;DHT22;43961;52.940;6.834;2023-11-19T12:25:41;11.30;99.90
57026;DHT22;43961;52.940;6.834;2023-11-19T12:28:12;11.30;99.90
57026;DHT22;43961;52.940;6.834;2023-11-19T12:30:38;11.30;99.90
57026;DHT22;43961;52.940;6.834;2023-11-19T12:33:11;11.30;99.90
57026;DHT22;43961;52.940;6.834;2023-11-19T12:35:41;11.20;99.90
57026;DHT22;43961;52.940;6.834;2023-11-19T12:38:17;11.20;99.90
57026;DHT22;43961;52.940;6.834;2023-11-19T12:40:43;11.30;99.90
57026;DHT22;43961;52.940;6.834;2023-11-19T12:43:09;11.30;99.90
57026;DHT22;43961;52.940;6.834;2023-11-19T12:45:38;11.30;99.90
57026;DHT22;43961;52.940;6.834;2023-11-19T12:48:05;11.30;99.90
57026;DHT22;43961;52.940;6.834;2023-11-19T12:50:53;11.20;99.90
57026;DHT22;43961;52.940;6.834;2023-11-19T12:53:19;11.20;99.90
57026;DHT22;43961;52.940;6.834;2023-11-19T12:55:45;11.30;99.90
57026;DHT22;43961;52.940;6.834;2023-11-19T12:58:34;11.30;99.90
57026;DHT22;43961;52.940;6.834;2023-11-19T13:01:04;11.30;99.90
57026;DHT22;43961;52.940;6.834;2023-11-19T13:03:37;11.30;99.90
57026;DHT22;43961;52.940;6.834;2023-11-19T13:06:13;11.30;99.90
57026;DHT22;43961;52.940;6.834;2023-11-19T13:08:48;11.30;99.90
57026;DHT22;43961;52.940;6.834;2023-11-19T13:11:31;11.30;99.90
57026;DHT22;43961;52.940;6.834;2023-11-19T13:14:04;11.30;99.90
57026;DHT22;43961;52.940;6.834;2023-11-19T13:16:30;11.30;99.90
57026;DHT22;43961;52.940;6.834;2023-11-19T13:18:57;11.40;99.90
57026;DHT22;43961;52.940;6.834;2023-11-19T13:21:24;11.30;99.90
57026;DHT22;43961;52.940;6.834;2023-11-19T13:23:50;11.40;99.90
57026;DHT22;43961;52.940;6.834;2023-11-19T13:26:16;11.40;99.90
57026;DHT22;43961;52.940;6.834;2023-11-19T13:28:42;11.40;99.90
57026;DHT22;43961;52.940;6.834;2023-11-19T13:31:07;11.40;99.90
57026;DHT22;43961;52.940;6.834;2023-11-19T13:33:34;11.40;99.90
57026;DHT22;43961;52.940;6.834;2023-11-19T13:36:00;11.30;99.90
57026;DHT22;43961;52.940;6.834;2023-11-19T13:38:32;11.40;99.90
57026;DHT22;43961;52.940;6.834;2023-11-19T13:40:58;11.40;99.90
57026;DHT22;43961;52.940;6.834;2023-11-19T13:43:24;11.40;99.90
57026;DHT22;43961;52.940;6.834;2023-11-19T13:45:50;11.40;99.90
57026;DHT22;43961;52.940;6.834;2023-11-19T13:48:18;11.30;99.90
57026;DHT22;43961;52.940;6.834;2023-11-19T13:50:45;11.30;99.90
57026;DHT22;43961;52.940;6.834;2023-11-19T13:53:10;11.30;99.90
57026;DHT22;43961;52.940;6.834;2023-11-19T13:55:36;11.30;99.90
57026;DHT22;43961;52.940;6.834;2023-11-19T13:58:02;11.30;99.90
57026;DHT22;43961;52.940;6.834;2023-11-19T14:00:27;11.30;99.90
57026;DHT22;43961;52.940;6.834;2023-11-19T14:02:53;11.30;99.90
57026;DHT22;43961;52.940;6.834;2023-11-19T14:05:19;11.30;99.90
57026;DHT22;43961;52.940;6.834;2023-11-19T14:07:45;11.30;99.90
57026;DHT22;43961;52.940;6.834;2023-11-19T14:10:14;11.30;99.90
57026;DHT22;43961;52.940;6.834;2023-11-19T14:12:40;11.30;99.90
57026;DHT22;43961;52.940;6.834;2023-11-19T14:15:07;11.30;99.90
57026;DHT22;43961;52.940;6.834;2023-11-19T14:17:38;11.30;99.90
57026;DHT22;43961;52.940;6.834;2023-11-19T14:20:05;11.30;99.90
57026;DHT22;43961;52.940;6.834;2023-11-19T14:22:44;11.30;99.90
57026;DHT22;43961;52.940;6.834;2023-11-19T14:25:13;11.30;99.90
57026;DHT22;43961;52.940;6.834;2023-11-19T14:27:39;11.30;99.90
57026;DHT22;43961;52.940;6.834;2023-11-19T14:30:06;11.30;99.90
57026;DHT22;43961;52.940;6.834;2023-11-19T14:32:32;11.30;99.90
57026;DHT22;43961;52.940;6.834;2023-11-19T14:34:59;11.20;99.90
57026;DHT22;43961;52.940;6.834;2023-11-19T14:37:25;11.20;99.90
57026;DHT22;43961;52.940;6.834;2023-11-19T14:39:50;11.20;99.90
57026;DHT22;43961;52.940;6.834;2023-11-19T14:42:16;11.20;99.90
57026;DHT22;43961;52.940;6.834;2023-11-19T14:44:42;11.10;99.90
57026;DHT22;43961;52.940;6.834;2023-11-19T14:47:08;11.10;99.90
57026;DHT22;43961;52.940;6.834;2023-11-19T14:49:37;11.10;99.90
57026;DHT22;43961;52.940;6.834;2023-11-19T14:52:04;11.00;99.90
57026;DHT22;43961;52.940;6.834;2023-11-19T14:54:29;11.00;99.90
57026;DHT22;43961;52.940;6.834;2023-11-19T14:56:56;11.00;99.90
57026;DHT22;43961;52.940;6.834;2023-11-19T14:59:22;11.00;99.90
57026;DHT22;43961;52.940;6.834;2023-11-19T15:01:48;11.00;99.90
57026;DHT22;43961;52.940;6.834;2023-11-19T15:04:13;11.00;99.90
57026;DHT22;43961;52.940;6.834;2023-11-19T15:06:39;11.00;99.90
57026;DHT22;43961;52.940;6.834;2023-11-19T15:09:04;11.00;99.90
57026;DHT22;43961;52.940;6.834;2023-11-19T15:11:33;11.00;99.90
57026;DHT22;43961;52.940;6.834;2023-11-19T15:13:59;11.00;99.90
57026;DHT22;43961;52.940;6.834;2023-11-19T15:16:25;11.00;99.90
57026;DHT22;43961;52.940;6.834;2023-11-19T15:18:57;10.90;99.90
57026;DHT22;43961;52.940;6.834;2023-11-19T15:21:26;10.90;99.90
57026;DHT22;43961;52.940;6.834;2023-11-19T15:23:52;10.90;99.90
57026;DHT22;43961;52.940;6.834;2023-11-19T15:26:18;10.80;99.90
57026;DHT22;43961;52.940;6.834;2023-11-19T15:28:44;10.90;99.90
57026;DHT22;43961;52.940;6.834;2023-11-19T15:31:10;10.80;99.90
57026;DHT22;43961;52.940;6.834;2023-11-19T15:33:36;10.80;99.90
57026;DHT22;43961;52.940;6.834;2023-11-19T15:36:02;10.80;99.90
57026;DHT22;43961;52.940;6.834;2023-11-19T15:38:36;10.80;99.90
57026;DHT22;43961;52.940;6.834;2023-11-19T15:41:01;10.80;99.90
57026;DHT22;43961;52.940;6.834;2023-11-19T15:43:30;10.80;99.90
57026;DHT22;43961;52.940;6.834;2023-11-19T15:45:58;10.70;99.90
57026;DHT22;43961;52.940;6.834;2023-11-19T15:48:24;10.70;99.90
57026;DHT22;43961;52.940;6.834;2023-11-19T15:50:51;10.70;99.90